Weather at Grawunder Field

Public forecast

Using degrees Fahrenheit for public forecast. Weather courtesy of forecast.io.

Closest aviation weather report (METAR) to Grawunder Field

Closest report is Brenham Municipal Airport, 17.9 nm (33.2 km) NNW. Retrieved 2022/08/12 17:35 UTC (18 minutes ago):

K11R 121735Z AUTO 34005KT 10SM BKN037 BKN045 BKN070 33/23 A2999 RMK AO2 LTG DSNT SE T03310233

Closest aviation forecast (TAF) to Grawunder Field

Closest forecast is Sugar Land Regional Airport, 36.2 nm (67.1 km) ESE. Retrieved 2022/08/12 12:24 UTC (5 hours ago):

TAF KSGR 121121Z 1212/1312 VRB04KT P6SM VCSH SCT025 BKN250 FM121400 03007KT P6SM SCT025 SCT150 FM121600 03008KT P6SM VCSH SCT045 BKN090 FM122000 07008KT P6SM VCTS SCT050CB BKN100 FM130100 VRB05KT P6SM FEW040 BKN070 FM130900 VRB02KT P6SM VCSH SCT030 SCT150